CYDP/YDP METAR and TAF weather

Enter ICAO airport designator
Station Type Date Time Source
CYDP METAR 2021/05/11 23:00 UTC NOAA

CYDP 112300Z 05007KT 15SM FEW013 OVC024 01/01 A3009 RMK SF1SC8 SF TR LAST STFD OBS/NXT 120800Z SLP191


Station Type Date Time Source
CYDP Decoded METAR 2021/05/11 23:00 UTC NOAA

Nain, Nfld, Canada (CYDP) 56-33N 061-41W 7M
May 11, 2021 - 07:00 PM EDT / 2021.05.11 2300 UTC
Wind: from the NE (050 degrees) at 8 MPH (7 KT):0
Visibility: 15 mile(s):0
Sky conditions: overcast
Temperature: 33 F (1 C)
Windchill: 26 F (-3 C):1
Dew Point: 33 F (1 C)
Relative Humidity: 100%
Pressure (altimeter): 30.09 in. Hg (1018 hPa)
ob: CYDP 112300Z 05007KT 15SM FEW013 OVC024 01/01 A3009 RMK SF1SC8 SF TR LAST STFD OBS/NXT 120800Z SLP191
cycle: 23

Station Type Date Time Source
CYDP TAF 2021/05/11 21:06 UTC NOAA

TAF
AMD TAF
AMD CYDP 112104Z 1121/1123 33005KT P6SM FEW012 OVC025
TEMPO 1121/1123 5SM -SHSN BKN012 OVC025
RMK NXT FCST WILL BE ISSUED AT 120945Z

Example: see airport list